Terminal Aerodrome Forecast
Issued by NWS Charleston, SC

Home | Current Version | Previous Version | Text Only | Print | Product List | Glossary On
Versions: 1 2 3 4 5 6 7 8 9 10 11 12 13 14 15 16 17
352
FTUS42 KCHS 060537
TAFCHS
TAF
KCHS 060537Z 0606/0706 05009KT 3SM RA BR OVC005
     FM061500 19008KT 4SM -SHRA BR OVC004
     FM061700 23015G24KT P6SM OVC007
     FM061900 26015G22KT P6SM SCT025
     FM062300 28007KT P6SM FEW020=

USA.gov is the U.S. government's official web portal to all federal, state and local government web resources and services.